PWSweather.com
Personal Weather Stations
Station Observations
UWIDEPER1
Brown County, Depere, WI 54115

Brown CountyDepere, WI 54115

Lat: 44.44, Lon: -88.05

Elevation: 610

Station Type: Acurite 5in1

Latest ConditionsUpdated 7:10:01 PM CDT Monday, Jul 16, 2018
Currently Today's Max Today's Min Today's Average
Temperature 83.8°F28.8°C 86.9°F30.5°C 72.5°F22.5°C 79.2°F26.2°C
Dew Point 62.6°F17.0°C 73.3°F22.9°C 58.2°F14.6°C 67.7°F19.8°C
Winds 4.6 mph W7.4 kmh W 6.9 mph -11.1 kmh - - 3.3 mph 5.3 kmh
Wind Gusts 3.5 mph5.6 kmh 15.0 mph24.1 kmh - -
Humidity 49% 95% 39% 71%
Pressure 29.87 in1011.5 mb 29.91 in1012.9 mb 29.82 in1009.8 mb -
Hour Temp Dew Point Humidity Winds Wind Gusts Pressure Precip Precip Rate Daily Precip Total
07:10 PM 83.8°F28.8°C 62.6°F17.0°C 49% 4.6 mph W7.4 kmh W 3.5 mph5.6 kmh 29.87 in1011.5 mb - 0.00 in0.0 mm 0.00 in0.0 mm
07:00 PM 84.5°F29.2°C 63.2°F17.3°C 49% 4.6 mph W7.4 kmh W 4.6 mph7.4 kmh 29.86 in1011.2 mb - 0.00 in0.0 mm 0.00 in0.0 mm
06:55 PM 84.6°F29.2°C 63.3°F17.4°C 49% 4.6 mph WSW7.4 kmh WSW 11.5 mph18.5 kmh 29.86 in1011.2 mb - 0.00 in0.0 mm 0.00 in0.0 mm
06:50 PM 84.6°F29.2°C 62.7°F17.1°C 48% 3.5 mph WSW5.6 kmh WSW 8.1 mph13.0 kmh 29.86 in1011.2 mb - 0.00 in0.0 mm 0.00 in0.0 mm
06:45 PM 84.4°F29.1°C 63.1°F17.3°C 49% 3.5 mph W5.6 kmh W 3.5 mph5.6 kmh 29.86 in1011.2 mb - 0.00 in0.0 mm 0.00 in0.0 mm
06:40 PM 84.6°F29.2°C 62.7°F17.1°C 48% 4.6 mph SW7.4 kmh SW 6.9 mph11.1 kmh 29.87 in1011.5 mb - 0.00 in0.0 mm 0.00 in0.0 mm
06:35 PM 84.6°F29.2°C 62.7°F17.1°C 48% 4.6 mph SW7.4 kmh SW 5.8 mph9.3 kmh 29.86 in1011.2 mb - 0.00 in0.0 mm 0.00 in0.0 mm
06:30 PM 84.4°F29.1°C 62.5°F16.9°C 48% 4.6 mph ESE7.4 kmh ESE 5.8 mph9.3 kmh 29.86 in1011.2 mb - 0.00 in0.0 mm 0.00 in0.0 mm
06:25 PM 84.3°F29.1°C 62.5°F16.9°C 48% 5.8 mph WSW9.3 kmh WSW 11.5 mph18.5 kmh 29.86 in1011.2 mb - 0.00 in0.0 mm 0.00 in0.0 mm
06:20 PM 84.4°F29.1°C 63.1°F17.3°C 49% 5.8 mph NW9.3 kmh NW 8.1 mph13.0 kmh 29.86 in1011.2 mb - 0.00 in0.0 mm 0.00 in0.0 mm
06:15 PM 84.5°F29.2°C 62.6°F17.0°C 48% 6.9 mph N11.1 kmh N 9.2 mph14.8 kmh 29.87 in1011.5 mb - 0.00 in0.0 mm 0.00 in0.0 mm
06:10 PM 84.6°F29.2°C 62.7°F17.1°C 48% 4.6 mph W7.4 kmh W 3.5 mph5.6 kmh 29.86 in1011.2 mb - 0.00 in0.0 mm 0.00 in0.0 mm
06:00 PM 84.6°F29.2°C 61.5°F16.4°C 46% 4.6 mph W7.4 kmh W 6.9 mph11.1 kmh 29.86 in1011.2 mb - 0.00 in0.0 mm 0.00 in0.0 mm
05:55 PM 85.3°F29.6°C 61.5°F16.4°C 45% 5.8 mph WSW9.3 kmh WSW 6.9 mph11.1 kmh 29.86 in1011.2 mb - 0.00 in0.0 mm 0.00 in0.0 mm
05:50 PM 85.3°F29.6°C 61.5°F16.4°C 45% 5.8 mph SW9.3 kmh SW 4.6 mph7.4 kmh 29.86 in1011.2 mb - 0.00 in0.0 mm 0.00 in0.0 mm
05:45 PM 85.3°F29.6°C 61.5°F16.4°C 45% 5.8 mph SW9.3 kmh SW 4.6 mph7.4 kmh 29.86 in1011.2 mb - 0.00 in0.0 mm 0.00 in0.0 mm
05:40 PM 85.5°F29.7°C 61.7°F16.5°C 45% 5.8 mph W9.3 kmh W 6.9 mph11.1 kmh 29.86 in1011.2 mb - 0.00 in0.0 mm 0.00 in0.0 mm
05:35 PM 85.7°F29.8°C 61.9°F16.6°C 45% 4.6 mph NW7.4 kmh NW 8.1 mph13.0 kmh 29.86 in1011.2 mb - 0.00 in0.0 mm 0.00 in0.0 mm
05:30 PM 85.5°F29.7°C 61.1°F16.2°C 44% 4.6 mph WNW7.4 kmh WNW 3.5 mph5.6 kmh 29.86 in1011.2 mb - 0.00 in0.0 mm 0.00 in0.0 mm
05:25 PM 85.8°F29.9°C 61.4°F16.3°C 44% 4.6 mph WSW7.4 kmh WSW 8.1 mph13.0 kmh 29.86 in1011.2 mb - 0.00 in0.0 mm 0.00 in0.0 mm
05:20 PM 85.8°F29.9°C 61.4°F16.3°C 44% 5.8 mph SW9.3 kmh SW 8.1 mph13.0 kmh 29.86 in1011.2 mb - 0.00 in0.0 mm 0.00 in0.0 mm
05:15 PM 86.0°F30.0°C 60.9°F16.1°C 43% 4.6 mph WNW7.4 kmh WNW 4.6 mph7.4 kmh 29.86 in1011.2 mb - 0.00 in0.0 mm 0.00 in0.0 mm
05:10 PM 86.0°F30.0°C 59.6°F15.3°C 41% 5.8 mph WNW9.3 kmh WNW 4.6 mph7.4 kmh 29.86 in1011.2 mb - 0.00 in0.0 mm 0.00 in0.0 mm
05:00 PM 85.8°F29.9°C 59.4°F15.2°C 41% 4.6 mph SW7.4 kmh SW 3.5 mph5.6 kmh 29.86 in1011.2 mb - 0.00 in0.0 mm 0.00 in0.0 mm
04:55 PM 86.3°F30.2°C 59.1°F15.1°C 40% 5.8 mph W9.3 kmh W 6.9 mph11.1 kmh 29.86 in1011.2 mb - 0.00 in0.0 mm 0.00 in0.0 mm
04:50 PM 86.4°F30.2°C 59.2°F15.1°C 40% 5.8 mph WSW9.3 kmh WSW 8.1 mph13.0 kmh 29.86 in1011.2 mb - 0.00 in0.0 mm 0.00 in0.0 mm
04:45 PM 86.7°F30.4°C 59.5°F15.3°C 40% 5.8 mph SW9.3 kmh SW 6.9 mph11.1 kmh 29.86 in1011.2 mb - 0.00 in0.0 mm 0.00 in0.0 mm
04:40 PM 86.7°F30.4°C 59.5°F15.3°C 40% 4.6 mph W7.4 kmh W 6.9 mph11.1 kmh 29.86 in1011.2 mb - 0.00 in0.0 mm 0.00 in0.0 mm
04:35 PM 86.0°F30.0°C 58.2°F14.6°C 39% 4.6 mph WNW7.4 kmh WNW 3.5 mph5.6 kmh 29.85 in1010.8 mb - 0.00 in0.0 mm 0.00 in0.0 mm
04:30 PM 86.4°F30.2°C 59.2°F15.1°C 40% 5.8 mph WNW9.3 kmh WNW 4.6 mph7.4 kmh 29.85 in1010.8 mb - 0.00 in0.0 mm 0.00 in0.0 mm
04:25 PM 86.9°F30.5°C 59.7°F15.4°C 40% 4.6 mph W7.4 kmh W 8.1 mph13.0 kmh 29.85 in1010.8 mb - 0.00 in0.0 mm 0.00 in0.0 mm
04:20 PM 86.4°F30.2°C 59.2°F15.1°C 40% 5.8 mph W9.3 kmh W 3.5 mph5.6 kmh 29.85 in1010.8 mb - 0.00 in0.0 mm 0.00 in0.0 mm
04:15 PM 86.5°F30.3°C 58.6°F14.8°C 39% 5.8 mph W9.3 kmh W 15.0 mph24.1 kmh 29.85 in1010.8 mb - 0.00 in0.0 mm 0.00 in0.0 mm
04:10 PM 86.7°F30.4°C 59.5°F15.3°C 40% 6.9 mph WNW11.1 kmh WNW 8.1 mph13.0 kmh 29.85 in1010.8 mb - 0.00 in0.0 mm 0.00 in0.0 mm
04:00 PM 85.6°F29.8°C 61.2°F16.2°C 44% 5.8 mph WSW9.3 kmh WSW 5.8 mph9.3 kmh 29.85 in1010.8 mb - 0.00 in0.0 mm 0.00 in0.0 mm
03:55 PM 86.0°F30.0°C 61.5°F16.4°C 44% 4.6 mph SW7.4 kmh SW 8.1 mph13.0 kmh 29.85 in1010.8 mb - 0.00 in0.0 mm 0.00 in0.0 mm
03:50 PM 86.3°F30.2°C 61.1°F16.2°C 43% 5.8 mph W9.3 kmh W 8.1 mph13.0 kmh 29.85 in1010.8 mb - 0.00 in0.0 mm 0.00 in0.0 mm
03:45 PM 85.6°F29.8°C 60.6°F15.9°C 43% 4.6 mph W7.4 kmh W 5.8 mph9.3 kmh 29.86 in1011.2 mb - 0.00 in0.0 mm 0.00 in0.0 mm
03:40 PM 85.5°F29.7°C 60.4°F15.8°C 43% 4.6 mph W7.4 kmh W 6.9 mph11.1 kmh 29.86 in1011.2 mb - 0.00 in0.0 mm 0.00 in0.0 mm
03:35 PM 85.9°F29.9°C 59.5°F15.3°C 41% 6.9 mph SW11.1 kmh SW 5.8 mph9.3 kmh 29.85 in1010.8 mb - 0.00 in0.0 mm 0.00 in0.0 mm
03:30 PM 86.1°F30.1°C 61.0°F16.1°C 43% 5.8 mph WNW9.3 kmh WNW 8.1 mph13.0 kmh 29.85 in1010.8 mb - 0.00 in0.0 mm 0.00 in0.0 mm
03:25 PM 86.2°F30.1°C 61.0°F16.1°C 43% 5.8 mph WNW9.3 kmh WNW 11.5 mph18.5 kmh 29.86 in1011.2 mb - 0.00 in0.0 mm 0.00 in0.0 mm
03:20 PM 85.5°F29.7°C 61.1°F16.2°C 44% 4.6 mph W7.4 kmh W 4.6 mph7.4 kmh 29.86 in1011.2 mb - 0.00 in0.0 mm 0.00 in0.0 mm
03:15 PM 86.0°F30.0°C 60.9°F16.1°C 43% 5.8 mph W9.3 kmh W 6.9 mph11.1 kmh 29.86 in1011.2 mb - 0.00 in0.0 mm 0.00 in0.0 mm
03:10 PM 86.0°F30.0°C 62.2°F16.8°C 45% 4.6 mph W7.4 kmh W 8.1 mph13.0 kmh 29.86 in1011.2 mb - 0.00 in0.0 mm 0.00 in0.0 mm
03:00 PM 86.2°F30.1°C 62.3°F16.8°C 45% 5.8 mph W9.3 kmh W 8.1 mph13.0 kmh 29.86 in1011.2 mb - 0.00 in0.0 mm 0.00 in0.0 mm
02:55 PM 86.0°F30.0°C 62.2°F16.8°C 45% 5.8 mph WNW9.3 kmh WNW 5.8 mph9.3 kmh 29.86 in1011.2 mb - 0.00 in0.0 mm 0.00 in0.0 mm
02:50 PM 85.1°F29.5°C 61.4°F16.3°C 45% 6.9 mph WSW11.1 kmh WSW 9.2 mph14.8 kmh 29.87 in1011.5 mb - 0.00 in0.0 mm 0.00 in0.0 mm
02:45 PM 85.4°F29.7°C 61.6°F16.4°C 45% 5.8 mph SW9.3 kmh SW 11.5 mph18.5 kmh 29.87 in1011.5 mb - 0.00 in0.0 mm 0.00 in0.0 mm
02:40 PM 86.1°F30.1°C 62.3°F16.8°C 45% 4.6 mph NW7.4 kmh NW 8.1 mph13.0 kmh 29.87 in1011.5 mb - 0.00 in0.0 mm 0.00 in0.0 mm
02:35 PM 85.8°F29.9°C 63.9°F17.7°C 48% 4.6 mph W7.4 kmh W 5.8 mph9.3 kmh 29.87 in1011.5 mb - 0.00 in0.0 mm 0.00 in0.0 mm
02:30 PM 85.2°F29.6°C 62.1°F16.7°C 46% 3.5 mph SW5.6 kmh SW 8.1 mph13.0 kmh 29.87 in1011.5 mb - 0.00 in0.0 mm 0.00 in0.0 mm
02:25 PM 84.9°F29.4°C 61.2°F16.2°C 45% 6.9 mph W11.1 kmh W 10.4 mph16.7 kmh 29.87 in1011.5 mb - 0.00 in0.0 mm 0.00 in0.0 mm
02:20 PM 85.3°F29.6°C 61.5°F16.4°C 45% 6.9 mph W11.1 kmh W 8.1 mph13.0 kmh 29.87 in1011.5 mb - 0.00 in0.0 mm 0.00 in0.0 mm
02:15 PM 85.0°F29.4°C 63.7°F17.6°C 49% 5.8 mph NW9.3 kmh NW 8.1 mph13.0 kmh 29.87 in1011.5 mb - 0.00 in0.0 mm 0.00 in0.0 mm
02:10 PM 84.4°F29.1°C 63.1°F17.3°C 49% 6.9 mph WSW11.1 kmh WSW 6.9 mph11.1 kmh 29.87 in1011.5 mb - 0.00 in0.0 mm 0.00 in0.0 mm
02:00 PM 85.5°F29.7°C 63.5°F17.5°C 48% 5.8 mph SW9.3 kmh SW 5.8 mph9.3 kmh 29.87 in1011.5 mb - 0.00 in0.0 mm 0.00 in0.0 mm
01:55 PM 85.5°F29.7°C 63.5°F17.5°C 48% 5.8 mph WSW9.3 kmh WSW 8.1 mph13.0 kmh 29.87 in1011.5 mb - 0.00 in0.0 mm 0.00 in0.0 mm
01:50 PM 84.9°F29.4°C 64.2°F17.9°C 50% 3.5 mph WNW5.6 kmh WNW 6.9 mph11.1 kmh 29.87 in1011.5 mb - 0.00 in0.0 mm 0.00 in0.0 mm
01:45 PM 84.9°F29.4°C 63.6°F17.6°C 49% 5.8 mph W9.3 kmh W 5.8 mph9.3 kmh 29.87 in1011.5 mb - 0.00 in0.0 mm 0.00 in0.0 mm
01:40 PM 84.9°F29.4°C 64.2°F17.9°C 50% 4.6 mph SW7.4 kmh SW 6.9 mph11.1 kmh 29.87 in1011.5 mb - 0.00 in0.0 mm 0.00 in0.0 mm
01:35 PM 84.6°F29.2°C 63.9°F17.7°C 50% 3.5 mph WSW5.6 kmh WSW 3.5 mph5.6 kmh 29.87 in1011.5 mb - 0.00 in0.0 mm 0.00 in0.0 mm
01:30 PM 84.6°F29.2°C 64.4°F18.0°C 51% 5.8 mph W9.3 kmh W 3.5 mph5.6 kmh 29.87 in1011.5 mb - 0.00 in0.0 mm 0.00 in0.0 mm
01:25 PM 84.3°F29.1°C 65.3°F18.5°C 53% 5.8 mph W9.3 kmh W 6.9 mph11.1 kmh 29.88 in1011.9 mb - 0.00 in0.0 mm 0.00 in0.0 mm
01:20 PM 84.5°F29.2°C 66.0°F18.9°C 54% 4.6 mph WSW7.4 kmh WSW 6.9 mph11.1 kmh 29.88 in1011.9 mb - 0.00 in0.0 mm 0.00 in0.0 mm
01:15 PM 83.8°F28.8°C 65.4°F18.6°C 54% 5.8 mph SSW9.3 kmh SSW 6.9 mph11.1 kmh 29.88 in1011.9 mb - 0.00 in0.0 mm 0.00 in0.0 mm
01:10 PM 84.2°F29.0°C 65.2°F18.4°C 53% 4.6 mph WNW7.4 kmh WNW 6.9 mph11.1 kmh 29.88 in1011.9 mb - 0.00 in0.0 mm 0.00 in0.0 mm
01:00 PM 83.8°F28.8°C 66.5°F19.2°C 56% 4.6 mph WSW7.4 kmh WSW 4.6 mph7.4 kmh 29.88 in1011.9 mb - 0.00 in0.0 mm 0.00 in0.0 mm
12:55 PM 84.3°F29.1°C 66.4°F19.1°C 55% 5.8 mph WNW9.3 kmh WNW 5.8 mph9.3 kmh 29.88 in1011.9 mb - 0.00 in0.0 mm 0.00 in0.0 mm
12:50 PM 83.8°F28.8°C 65.9°F18.8°C 55% 4.6 mph N7.4 kmh N 5.8 mph9.3 kmh 29.89 in1012.2 mb - 0.00 in0.0 mm 0.00 in0.0 mm
12:45 PM 84.6°F29.2°C 65.6°F18.7°C 53% 3.5 mph W5.6 kmh W 3.5 mph5.6 kmh 29.89 in1012.2 mb - 0.00 in0.0 mm 0.00 in0.0 mm
12:40 PM 83.0°F28.3°C 62.4°F16.9°C 50% 5.8 mph SSW9.3 kmh SSW 5.8 mph9.3 kmh 29.89 in1012.2 mb - 0.00 in0.0 mm 0.00 in0.0 mm
12:35 PM 82.9°F28.3°C 66.6°F19.2°C 58% 5.8 mph NNW9.3 kmh NNW 6.9 mph11.1 kmh 29.89 in1012.2 mb - 0.00 in0.0 mm 0.00 in0.0 mm
12:30 PM 82.9°F28.3°C 66.1°F18.9°C 57% 4.6 mph WNW7.4 kmh WNW 8.1 mph13.0 kmh 29.89 in1012.2 mb - 0.00 in0.0 mm 0.00 in0.0 mm
12:25 PM 83.5°F28.6°C 65.6°F18.7°C 55% 4.6 mph WNW7.4 kmh WNW 9.2 mph14.8 kmh 29.89 in1012.2 mb - 0.00 in0.0 mm 0.00 in0.0 mm
12:20 PM 83.6°F28.7°C 65.7°F18.7°C 55% 3.5 mph NW5.6 kmh NW 4.6 mph7.4 kmh 29.89 in1012.2 mb - 0.00 in0.0 mm 0.00 in0.0 mm
12:15 PM 82.4°F28.0°C 67.6°F19.8°C 61% 4.6 mph WSW7.4 kmh WSW 4.6 mph7.4 kmh 29.89 in1012.2 mb - 0.00 in0.0 mm 0.00 in0.0 mm
12:10 PM 82.9°F28.3°C 68.1°F20.1°C 61% 3.5 mph NNW5.6 kmh NNW 5.8 mph9.3 kmh 29.90 in1012.5 mb - 0.00 in0.0 mm 0.00 in0.0 mm
12:00 PM 82.1°F27.8°C 68.3°F20.2°C 63% 3.5 mph N5.6 kmh N 3.5 mph5.6 kmh 29.90 in1012.5 mb - 0.00 in0.0 mm 0.00 in0.0 mm
11:55 AM 82.4°F28.0°C 68.5°F20.3°C 63% 4.6 mph W7.4 kmh W 4.6 mph7.4 kmh 29.90 in1012.5 mb - 0.00 in0.0 mm 0.00 in0.0 mm
11:50 AM 82.6°F28.1°C 67.8°F19.9°C 61% 3.5 mph W5.6 kmh W 4.6 mph7.4 kmh 29.90 in1012.5 mb - 0.00 in0.0 mm 0.00 in0.0 mm
11:45 AM 81.9°F27.7°C 67.1°F19.5°C 61% 4.6 mph W7.4 kmh W 4.6 mph7.4 kmh 29.90 in1012.5 mb - 0.00 in0.0 mm 0.00 in0.0 mm
11:40 AM 82.0°F27.8°C 66.8°F19.3°C 60% 3.5 mph W5.6 kmh W 4.6 mph7.4 kmh 29.90 in1012.5 mb - 0.00 in0.0 mm 0.00 in0.0 mm
11:35 AM 81.7°F27.6°C 66.9°F19.4°C 61% 4.6 mph SW7.4 kmh SW 6.9 mph11.1 kmh 29.90 in1012.5 mb - 0.00 in0.0 mm 0.00 in0.0 mm
11:30 AM 81.9°F27.7°C 67.1°F19.5°C 61% 3.5 mph W5.6 kmh W 5.8 mph9.3 kmh 29.90 in1012.5 mb - 0.00 in0.0 mm 0.00 in0.0 mm
11:25 AM 81.8°F27.7°C 66.6°F19.2°C 60% 3.5 mph WSW5.6 kmh WSW 5.8 mph9.3 kmh 29.90 in1012.5 mb - 0.00 in0.0 mm 0.00 in0.0 mm
11:20 AM 81.9°F27.7°C 66.6°F19.2°C 60% 3.5 mph WSW5.6 kmh WSW 4.6 mph7.4 kmh 29.90 in1012.5 mb - 0.00 in0.0 mm 0.00 in0.0 mm
11:15 AM 81.9°F27.7°C 68.5°F20.3°C 64% 3.5 mph N5.6 kmh N 4.6 mph7.4 kmh 29.90 in1012.5 mb - 0.00 in0.0 mm 0.00 in0.0 mm
11:10 AM 81.3°F27.4°C 68.9°F20.5°C 66% 3.5 mph NW5.6 kmh NW 6.9 mph11.1 kmh 29.90 in1012.5 mb - 0.00 in0.0 mm 0.00 in0.0 mm
11:00 AM 80.4°F26.9°C 70.2°F21.2°C 71% 4.6 mph W7.4 kmh W 3.5 mph5.6 kmh 29.90 in1012.5 mb - 0.00 in0.0 mm 0.00 in0.0 mm
10:55 AM 80.1°F26.7°C 71.1°F21.7°C 74% 3.5 mph S5.6 kmh S 5.8 mph9.3 kmh 29.89 in1012.2 mb - 0.00 in0.0 mm 0.00 in0.0 mm
10:50 AM 80.1°F26.7°C 71.4°F21.9°C 75% 3.5 mph SW5.6 kmh SW 4.6 mph7.4 kmh 29.90 in1012.5 mb - 0.00 in0.0 mm 0.00 in0.0 mm
10:45 AM 80.1°F26.7°C 71.4°F21.9°C 75% 3.5 mph W5.6 kmh W 6.9 mph11.1 kmh 29.90 in1012.5 mb - 0.00 in0.0 mm 0.00 in0.0 mm
10:40 AM 79.1°F26.2°C 70.5°F21.4°C 75% 4.6 mph WSW7.4 kmh WSW 5.8 mph9.3 kmh 29.90 in1012.5 mb - 0.00 in0.0 mm 0.00 in0.0 mm
10:35 AM 79.2°F26.2°C 70.5°F21.4°C 75% 2.3 mph W3.7 kmh W 3.5 mph5.6 kmh 29.91 in1012.9 mb - 0.00 in0.0 mm 0.00 in0.0 mm
10:30 AM 78.2°F25.7°C 70.8°F21.6°C 78% 2.3 mph NW3.7 kmh NW 3.5 mph5.6 kmh 29.91 in1012.9 mb - 0.00 in0.0 mm 0.00 in0.0 mm
10:25 AM 78.4°F25.8°C 69.8°F21.0°C 75% 3.5 mph WNW5.6 kmh WNW 4.6 mph7.4 kmh 29.91 in1012.9 mb - 0.00 in0.0 mm 0.00 in0.0 mm
10:20 AM 77.2°F25.1°C 69.0°F20.6°C 76% 3.5 mph W5.6 kmh W 5.8 mph9.3 kmh 29.90 in1012.5 mb - 0.00 in0.0 mm 0.00 in0.0 mm
10:15 AM 76.8°F24.9°C 68.7°F20.4°C 76% 3.5 mph W5.6 kmh W 3.5 mph5.6 kmh 29.91 in1012.9 mb - 0.00 in0.0 mm 0.00 in0.0 mm
10:10 AM 77.1°F25.1°C 68.9°F20.5°C 76% 2.3 mph NNW3.7 kmh NNW 5.8 mph9.3 kmh 29.91 in1012.9 mb - 0.00 in0.0 mm 0.00 in0.0 mm
10:00 AM 75.9°F24.4°C 68.6°F20.3°C 78% 4.6 mph WNW7.4 kmh WNW 4.6 mph7.4 kmh 29.91 in1012.9 mb - 0.00 in0.0 mm 0.00 in0.0 mm
09:55 AM 75.8°F24.3°C 68.4°F20.2°C 78% 3.5 mph NE5.6 kmh NE 6.9 mph11.1 kmh 29.91 in1012.9 mb - 0.00 in0.0 mm 0.00 in0.0 mm
09:50 AM 75.4°F24.1°C 68.4°F20.2°C 79% 3.5 mph NW5.6 kmh NW 4.6 mph7.4 kmh 29.90 in1012.5 mb - 0.00 in0.0 mm 0.00 in0.0 mm
09:45 AM 75.4°F24.1°C 68.8°F20.4°C 80% 3.5 mph NW5.6 kmh NW 3.5 mph5.6 kmh 29.90 in1012.5 mb - 0.00 in0.0 mm 0.00 in0.0 mm
09:40 AM 75.4°F24.1°C 69.1°F20.6°C 81% 2.3 mph NW3.7 kmh NW 4.6 mph7.4 kmh 29.90 in1012.5 mb - 0.00 in0.0 mm 0.00 in0.0 mm
09:35 AM 75.4°F24.1°C 69.1°F20.6°C 81% 2.3 mph NNE3.7 kmh NNE 3.5 mph5.6 kmh 29.90 in1012.5 mb - 0.00 in0.0 mm 0.00 in0.0 mm
09:30 AM 75.6°F24.2°C 69.3°F20.7°C 81% 3.5 mph NNW5.6 kmh NNW 4.6 mph7.4 kmh 29.90 in1012.5 mb - 0.00 in0.0 mm 0.00 in0.0 mm
09:25 AM 75.5°F24.2°C 69.2°F20.7°C 81% 3.5 mph WNW5.6 kmh WNW 5.8 mph9.3 kmh 29.88 in1011.9 mb - 0.00 in0.0 mm 0.00 in0.0 mm
09:20 AM 75.0°F23.9°C 68.8°F20.4°C 81% 2.3 mph NNE3.7 kmh NNE 2.3 mph3.7 kmh 29.90 in1012.5 mb - 0.00 in0.0 mm 0.00 in0.0 mm
09:15 AM 75.3°F24.1°C 69.1°F20.6°C 81% 2.3 mph N3.7 kmh N 3.5 mph5.6 kmh 29.89 in1012.2 mb - 0.00 in0.0 mm 0.00 in0.0 mm
09:10 AM 75.0°F23.9°C 68.8°F20.4°C 81% 2.3 mph NE3.7 kmh NE 1.2 mph1.9 kmh 29.89 in1012.2 mb - 0.00 in0.0 mm 0.00 in0.0 mm
09:00 AM 74.7°F23.7°C 68.4°F20.2°C 81% 3.5 mph N5.6 kmh N 4.6 mph7.4 kmh 29.89 in1012.2 mb - 0.00 in0.0 mm 0.00 in0.0 mm
08:55 AM 74.7°F23.7°C 68.1°F20.1°C 80% 3.5 mph WNW5.6 kmh WNW 5.8 mph9.3 kmh 29.89 in1012.2 mb - 0.00 in0.0 mm 0.00 in0.0 mm
08:50 AM 74.7°F23.7°C 67.7°F19.8°C 79% 3.5 mph NNE5.6 kmh NNE 3.5 mph5.6 kmh 29.89 in1012.2 mb - 0.00 in0.0 mm 0.00 in0.0 mm
08:45 AM 74.7°F23.7°C 67.7°F19.8°C 79% 4.6 mph NW7.4 kmh NW 4.6 mph7.4 kmh 29.89 in1012.2 mb - 0.00 in0.0 mm 0.00 in0.0 mm
08:40 AM 75.0°F23.9°C 68.1°F20.1°C 79% 4.6 mph SSW7.4 kmh SSW 10.4 mph16.7 kmh 29.89 in1012.2 mb - 0.00 in0.0 mm 0.00 in0.0 mm
08:35 AM 75.4°F24.1°C 68.0°F20.0°C 78% 4.6 mph N7.4 kmh N 5.8 mph9.3 kmh 29.89 in1012.2 mb - 0.00 in0.0 mm 0.00 in0.0 mm
08:30 AM 75.7°F24.3°C 68.3°F20.2°C 78% 3.5 mph N5.6 kmh N 5.8 mph9.3 kmh 29.88 in1011.9 mb - 0.00 in0.0 mm 0.00 in0.0 mm
08:25 AM 76.1°F24.5°C 69.1°F20.6°C 79% 3.5 mph NW5.6 kmh NW 3.5 mph5.6 kmh 29.88 in1011.9 mb - 0.00 in0.0 mm 0.00 in0.0 mm
08:20 AM 76.4°F24.7°C 69.4°F20.8°C 79% 4.6 mph N7.4 kmh N 6.9 mph11.1 kmh 29.88 in1011.9 mb - 0.00 in0.0 mm 0.00 in0.0 mm
08:15 AM 76.8°F24.9°C 70.2°F21.2°C 80% 4.6 mph NW7.4 kmh NW 5.8 mph9.3 kmh 29.88 in1011.9 mb - 0.00 in0.0 mm 0.00 in0.0 mm
08:10 AM 76.3°F24.6°C 70.0°F21.1°C 81% 4.6 mph N7.4 kmh N 5.8 mph9.3 kmh 29.88 in1011.9 mb - 0.00 in0.0 mm 0.00 in0.0 mm
08:00 AM 75.0°F23.9°C 69.5°F20.8°C 83% 3.5 mph NW5.6 kmh NW 4.6 mph7.4 kmh 29.88 in1011.9 mb - 0.00 in0.0 mm 0.00 in0.0 mm
07:55 AM 75.0°F23.9°C 69.5°F20.8°C 83% 4.6 mph WNW7.4 kmh WNW 4.6 mph7.4 kmh 29.88 in1011.9 mb - 0.00 in0.0 mm 0.00 in0.0 mm
07:50 AM 75.2°F24.0°C 69.6°F20.9°C 83% 5.8 mph WNW9.3 kmh WNW 9.2 mph14.8 kmh 29.88 in1011.9 mb - 0.00 in0.0 mm 0.00 in0.0 mm
07:45 AM 75.6°F24.2°C 71.1°F21.7°C 86% 4.6 mph N7.4 kmh N 5.8 mph9.3 kmh 29.87 in1011.5 mb - 0.00 in0.0 mm 0.00 in0.0 mm
07:40 AM 75.9°F24.4°C 71.4°F21.9°C 86% 2.3 mph NE3.7 kmh NE 5.8 mph9.3 kmh 29.87 in1011.5 mb - 0.00 in0.0 mm 0.00 in0.0 mm
07:35 AM 75.6°F24.2°C 71.8°F22.1°C 88% 2.3 mph NNE3.7 kmh NNE 5.8 mph9.3 kmh 29.87 in1011.5 mb - 0.00 in0.0 mm 0.00 in0.0 mm
07:30 AM 75.6°F24.2°C 71.8°F22.1°C 88% 2.3 mph NNE3.7 kmh NNE 3.5 mph5.6 kmh 29.86 in1011.2 mb - 0.00 in0.0 mm 0.00 in0.0 mm
07:25 AM 75.6°F24.2°C 71.8°F22.1°C 88% 3.5 mph NW5.6 kmh NW 3.5 mph5.6 kmh 29.87 in1011.5 mb - 0.00 in0.0 mm 0.00 in0.0 mm
07:20 AM 75.6°F24.2°C 71.8°F22.1°C 88% 3.5 mph NNE5.6 kmh NNE 3.5 mph5.6 kmh 29.86 in1011.2 mb - 0.00 in0.0 mm 0.00 in0.0 mm
07:15 AM 75.6°F24.2°C 71.8°F22.1°C 88% 4.6 mph W7.4 kmh W 5.8 mph9.3 kmh 29.87 in1011.5 mb - 0.00 in0.0 mm 0.00 in0.0 mm
07:10 AM 75.6°F24.2°C 71.8°F22.1°C 88% 3.5 mph NW5.6 kmh NW 8.1 mph13.0 kmh 29.86 in1011.2 mb - 0.00 in0.0 mm 0.00 in0.0 mm
07:00 AM 75.4°F24.1°C 71.6°F22.0°C 88% 2.3 mph N3.7 kmh N 3.5 mph5.6 kmh 29.86 in1011.2 mb - 0.00 in0.0 mm 0.00 in0.0 mm
06:55 AM 75.0°F23.9°C 71.9°F22.2°C 90% 1.2 mph E1.9 kmh E 4.6 mph7.4 kmh 29.85 in1010.8 mb - 0.00 in0.0 mm 0.00 in0.0 mm
06:50 AM 74.8°F23.8°C 71.7°F22.1°C 90% 2.3 mph NW3.7 kmh NW 3.5 mph5.6 kmh 29.85 in1010.8 mb - 0.00 in0.0 mm 0.00 in0.0 mm
06:45 AM 74.7°F23.7°C 71.9°F22.2°C 91% 3.5 mph NNW5.6 kmh NNW 4.6 mph7.4 kmh 29.85 in1010.8 mb - 0.00 in0.0 mm 0.00 in0.0 mm
06:40 AM 74.5°F23.6°C 71.7°F22.1°C 91% 1.2 mph N1.9 kmh N 3.5 mph5.6 kmh 29.85 in1010.8 mb - 0.00 in0.0 mm 0.00 in0.0 mm
06:35 AM 74.3°F23.5°C 71.5°F21.9°C 91% 2.3 mph WNW3.7 kmh WNW 3.5 mph5.6 kmh 29.85 in1010.8 mb - 0.00 in0.0 mm 0.00 in0.0 mm
06:30 AM 74.3°F23.5°C 71.5°F21.9°C 91% 2.3 mph NW3.7 kmh NW 3.5 mph5.6 kmh 29.85 in1010.8 mb - 0.00 in0.0 mm 0.00 in0.0 mm
06:25 AM 73.9°F23.3°C 71.8°F22.1°C 93% 3.5 mph NW5.6 kmh NW 3.5 mph5.6 kmh 29.85 in1010.8 mb - 0.00 in0.0 mm 0.00 in0.0 mm
06:20 AM 73.9°F23.3°C 71.8°F22.1°C 93% 3.5 mph W5.6 kmh W 3.5 mph5.6 kmh 29.85 in1010.8 mb - 0.00 in0.0 mm 0.00 in0.0 mm
06:15 AM 73.6°F23.1°C 71.4°F21.9°C 93% 2.3 mph W3.7 kmh W 2.3 mph3.7 kmh 29.84 in1010.5 mb - 0.00 in0.0 mm 0.00 in0.0 mm
06:10 AM 73.5°F23.1°C 71.4°F21.9°C 93% 2.3 mph W3.7 kmh W 3.5 mph5.6 kmh 29.85 in1010.8 mb - 0.00 in0.0 mm 0.00 in0.0 mm
06:00 AM 73.0°F22.8°C 71.5°F21.9°C 95% Calm Calm 1.2 mph1.9 kmh 29.84 in1010.5 mb - 0.00 in0.0 mm 0.00 in0.0 mm
05:55 AM 72.7°F22.6°C 71.2°F21.8°C 95% 1.2 mph W1.9 kmh W 2.3 mph3.7 kmh 29.84 in1010.5 mb - 0.00 in0.0 mm 0.00 in0.0 mm
05:50 AM 72.7°F22.6°C 71.2°F21.8°C 95% 1.2 mph W1.9 kmh W 2.3 mph3.7 kmh 29.84 in1010.5 mb - 0.00 in0.0 mm 0.00 in0.0 mm
05:45 AM 72.7°F22.6°C 71.2°F21.8°C 95% 1.2 mph WSW1.9 kmh WSW 1.2 mph1.9 kmh 29.85 in1010.8 mb - 0.00 in0.0 mm 0.00 in0.0 mm
05:40 AM 72.7°F22.6°C 71.2°F21.8°C 95% Calm Calm -- 29.84 in1010.5 mb - 0.00 in0.0 mm 0.00 in0.0 mm
05:35 AM 72.7°F22.6°C 71.2°F21.8°C 95% 1.2 mph WSW1.9 kmh WSW 2.3 mph3.7 kmh 29.84 in1010.5 mb - 0.00 in0.0 mm 0.00 in0.0 mm
05:30 AM 72.5°F22.5°C 71.0°F21.7°C 95% 1.2 mph W1.9 kmh W 1.2 mph1.9 kmh 29.83 in1010.2 mb - 0.00 in0.0 mm 0.00 in0.0 mm
05:25 AM 72.5°F22.5°C 71.0°F21.7°C 95% Calm Calm 2.3 mph3.7 kmh 29.83 in1010.2 mb - 0.00 in0.0 mm 0.00 in0.0 mm
05:20 AM 72.7°F22.6°C 71.2°F21.8°C 95% Calm Calm -- 29.83 in1010.2 mb - 0.00 in0.0 mm 0.00 in0.0 mm
05:15 AM 72.7°F22.6°C 71.2°F21.8°C 95% Calm Calm -- 29.84 in1010.5 mb - 0.00 in0.0 mm 0.00 in0.0 mm
05:10 AM 72.7°F22.6°C 70.5°F21.4°C 93% Calm Calm 2.3 mph3.7 kmh 29.83 in1010.2 mb - 0.00 in0.0 mm 0.00 in0.0 mm
05:00 AM 72.9°F22.7°C 70.7°F21.5°C 93% Calm Calm -- 29.83 in1010.2 mb - 0.00 in0.0 mm 0.00 in0.0 mm
04:55 AM 73.0°F22.8°C 70.9°F21.6°C 93% Calm Calm -- 29.82 in1009.8 mb - 0.00 in0.0 mm 0.00 in0.0 mm
04:50 AM 73.0°F22.8°C 70.9°F21.6°C 93% Calm Calm -- 29.82 in1009.8 mb - 0.00 in0.0 mm 0.00 in0.0 mm
04:45 AM 73.0°F22.8°C 70.9°F21.6°C 93% Calm Calm -- 29.82 in1009.8 mb - 0.00 in0.0 mm 0.00 in0.0 mm
04:40 AM 73.0°F22.8°C 70.9°F21.6°C 93% 1.2 mph SE1.9 kmh SE 1.2 mph1.9 kmh 29.82 in1009.8 mb - 0.00 in0.0 mm 0.00 in0.0 mm
04:35 AM 73.0°F22.8°C 70.9°F21.6°C 93% 1.2 mph S1.9 kmh S -- 29.82 in1009.8 mb - 0.00 in0.0 mm 0.00 in0.0 mm
04:30 AM 73.0°F22.8°C 70.9°F21.6°C 93% 1.2 mph S1.9 kmh S 3.5 mph5.6 kmh 29.82 in1009.8 mb - 0.00 in0.0 mm 0.00 in0.0 mm
04:25 AM 73.0°F22.8°C 70.9°F21.6°C 93% Calm Calm -- 29.82 in1009.8 mb - 0.00 in0.0 mm 0.00 in0.0 mm
04:20 AM 73.3°F22.9°C 71.2°F21.8°C 93% Calm Calm -- 29.82 in1009.8 mb - 0.00 in0.0 mm 0.00 in0.0 mm
04:15 AM 73.0°F22.8°C 70.9°F21.6°C 93% Calm Calm -- 29.82 in1009.8 mb - 0.00 in0.0 mm 0.00 in0.0 mm
04:10 AM 73.0°F22.8°C 70.9°F21.6°C 93% Calm Calm -- 29.83 in1010.2 mb - 0.00 in0.0 mm 0.00 in0.0 mm
04:00 AM 73.0°F22.8°C 70.9°F21.6°C 93% Calm Calm -- 29.83 in1010.2 mb - 0.00 in0.0 mm 0.00 in0.0 mm
03:55 AM 73.0°F22.8°C 70.9°F21.6°C 93% Calm Calm -- 29.84 in1010.5 mb - 0.00 in0.0 mm 0.00 in0.0 mm
03:50 AM 73.5°F23.1°C 71.3°F21.8°C 93% Calm Calm -- 29.84 in1010.5 mb - 0.00 in0.0 mm 0.00 in0.0 mm
03:45 AM 73.6°F23.1°C 71.4°F21.9°C 93% Calm Calm -- 29.84 in1010.5 mb - 0.00 in0.0 mm 0.00 in0.0 mm
03:40 AM 73.7°F23.2°C 71.6°F22.0°C 93% Calm Calm -- 29.84 in1010.5 mb - 0.00 in0.0 mm 0.00 in0.0 mm
03:35 AM 73.9°F23.3°C 71.8°F22.1°C 93% Calm Calm -- 29.84 in1010.5 mb - 0.00 in0.0 mm 0.00 in0.0 mm
03:30 AM 73.9°F23.3°C 71.8°F22.1°C 93% Calm Calm -- 29.84 in1010.5 mb - 0.00 in0.0 mm 0.00 in0.0 mm
03:25 AM 73.9°F23.3°C 71.8°F22.1°C 93% 1.2 mph SW1.9 kmh SW 1.2 mph1.9 kmh 29.84 in1010.5 mb - 0.00 in0.0 mm 0.00 in0.0 mm
03:20 AM 73.9°F23.3°C 71.8°F22.1°C 93% 1.2 mph S1.9 kmh S -- 29.84 in1010.5 mb - 0.00 in0.0 mm 0.00 in0.0 mm
03:15 AM 73.9°F23.3°C 71.8°F22.1°C 93% Calm Calm 2.3 mph3.7 kmh 29.83 in1010.2 mb - 0.00 in0.0 mm 0.00 in0.0 mm
03:10 AM 74.3°F23.5°C 72.1°F22.3°C 93% Calm Calm -- 29.84 in1010.5 mb - 0.00 in0.0 mm 0.00 in0.0 mm
03:00 AM 74.5°F23.6°C 71.7°F22.1°C 91% 1.2 mph S1.9 kmh S 1.2 mph1.9 kmh 29.83 in1010.2 mb - 0.00 in0.0 mm 0.00 in0.0 mm
02:55 AM 74.7°F23.7°C 71.9°F22.2°C 91% 1.2 mph S1.9 kmh S 1.2 mph1.9 kmh 29.83 in1010.2 mb - 0.00 in0.0 mm 0.00 in0.0 mm
02:50 AM 74.8°F23.8°C 72.0°F22.2°C 91% 1.2 mph S1.9 kmh S -- 29.83 in1010.2 mb - 0.00 in0.0 mm 0.00 in0.0 mm
02:45 AM 74.8°F23.8°C 72.0°F22.2°C 91% 1.2 mph SSW1.9 kmh SSW 3.5 mph5.6 kmh 29.84 in1010.5 mb - 0.00 in0.0 mm 0.00 in0.0 mm
02:40 AM 74.8°F23.8°C 72.0°F22.2°C 91% 1.2 mph W1.9 kmh W 3.5 mph5.6 kmh 29.83 in1010.2 mb - 0.00 in0.0 mm 0.00 in0.0 mm
02:35 AM 74.9°F23.8°C 72.1°F22.3°C 91% 1.2 mph WSW1.9 kmh WSW 2.3 mph3.7 kmh 29.83 in1010.2 mb - 0.00 in0.0 mm 0.00 in0.0 mm
02:30 AM 75.0°F23.9°C 72.2°F22.3°C 91% Calm Calm 2.3 mph3.7 kmh 29.84 in1010.5 mb - 0.00 in0.0 mm 0.00 in0.0 mm
02:25 AM 75.0°F23.9°C 72.2°F22.3°C 91% 2.3 mph SSE3.7 kmh SSE 3.5 mph5.6 kmh 29.83 in1010.2 mb - 0.00 in0.0 mm 0.00 in0.0 mm
02:20 AM 75.4°F24.1°C 72.5°F22.5°C 91% 1.2 mph SW1.9 kmh SW 3.5 mph5.6 kmh 29.83 in1010.2 mb - 0.00 in0.0 mm 0.00 in0.0 mm
02:15 AM 75.4°F24.1°C 72.6°F22.6°C 91% 1.2 mph W1.9 kmh W 1.2 mph1.9 kmh 29.84 in1010.5 mb - 0.00 in0.0 mm 0.00 in0.0 mm
02:10 AM 75.4°F24.1°C 72.6°F22.6°C 91% 2.3 mph W3.7 kmh W 2.3 mph3.7 kmh 29.83 in1010.2 mb - 0.00 in0.0 mm 0.00 in0.0 mm
02:00 AM 75.6°F24.2°C 72.7°F22.6°C 91% 1.2 mph SW1.9 kmh SW 4.6 mph7.4 kmh 29.84 in1010.5 mb - 0.00 in0.0 mm 0.00 in0.0 mm
01:55 AM 75.6°F24.2°C 72.7°F22.6°C 91% 1.2 mph S1.9 kmh S 2.3 mph3.7 kmh 29.84 in1010.5 mb - 0.00 in0.0 mm 0.00 in0.0 mm
01:50 AM 75.6°F24.2°C 72.7°F22.6°C 91% 1.2 mph S1.9 kmh S 2.3 mph3.7 kmh 29.84 in1010.5 mb - 0.00 in0.0 mm 0.00 in0.0 mm
01:45 AM 75.6°F24.2°C 72.7°F22.6°C 91% 1.2 mph S1.9 kmh S 2.3 mph3.7 kmh 29.83 in1010.2 mb - 0.00 in0.0 mm 0.00 in0.0 mm
01:40 AM 75.6°F24.2°C 72.7°F22.6°C 91% 1.2 mph SSW1.9 kmh SSW -- 29.83 in1010.2 mb - 0.00 in0.0 mm 0.00 in0.0 mm
01:35 AM 75.9°F24.4°C 73.1°F22.8°C 91% 1.2 mph S1.9 kmh S 3.5 mph5.6 kmh 29.84 in1010.5 mb - 0.00 in0.0 mm 0.00 in0.0 mm
01:30 AM 75.9°F24.4°C 73.1°F22.8°C 91% 2.3 mph S3.7 kmh S 2.3 mph3.7 kmh 29.84 in1010.5 mb - 0.00 in0.0 mm 0.00 in0.0 mm
01:25 AM 75.9°F24.4°C 73.1°F22.8°C 91% 2.3 mph SSW3.7 kmh SSW 3.5 mph5.6 kmh 29.84 in1010.5 mb - 0.00 in0.0 mm 0.00 in0.0 mm
01:20 AM 75.9°F24.4°C 73.1°F22.8°C 91% 1.2 mph SSW1.9 kmh SSW 2.3 mph3.7 kmh 29.83 in1010.2 mb - 0.00 in0.0 mm 0.00 in0.0 mm
01:15 AM 75.9°F24.4°C 73.1°F22.8°C 91% 1.2 mph S1.9 kmh S 3.5 mph5.6 kmh 29.84 in1010.5 mb - 0.00 in0.0 mm 0.00 in0.0 mm
01:10 AM 75.9°F24.4°C 73.1°F22.8°C 91% 1.2 mph SSW1.9 kmh SSW 3.5 mph5.6 kmh 29.84 in1010.5 mb - 0.00 in0.0 mm 0.00 in0.0 mm
01:00 AM 76.1°F24.5°C 73.2°F22.9°C 91% 1.2 mph S1.9 kmh S 3.5 mph5.6 kmh 29.84 in1010.5 mb - 0.00 in0.0 mm 0.00 in0.0 mm
12:55 AM 76.3°F24.6°C 73.1°F22.8°C 90% 1.2 mph S1.9 kmh S 2.3 mph3.7 kmh 29.84 in1010.5 mb - 0.00 in0.0 mm 0.00 in0.0 mm
12:50 AM 76.5°F24.7°C 73.3°F22.9°C 90% 2.3 mph SSW3.7 kmh SSW 3.5 mph5.6 kmh 29.84 in1010.5 mb - 0.00 in0.0 mm 0.00 in0.0 mm
12:45 AM 76.5°F24.7°C 73.3°F22.9°C 90% 2.3 mph SSW3.7 kmh SSW 2.3 mph3.7 kmh 29.84 in1010.5 mb - 0.00 in0.0 mm 0.00 in0.0 mm
12:40 AM 76.5°F24.7°C 73.3°F22.9°C 90% 2.3 mph S3.7 kmh S 3.5 mph5.6 kmh 29.85 in1010.8 mb - 0.00 in0.0 mm 0.00 in0.0 mm
12:35 AM 76.3°F24.6°C 73.1°F22.8°C 90% 2.3 mph S3.7 kmh S 2.3 mph3.7 kmh 29.85 in1010.8 mb - 0.00 in0.0 mm 0.00 in0.0 mm
12:30 AM 75.9°F24.4°C 72.8°F22.7°C 90% 2.3 mph SSW3.7 kmh SSW 3.5 mph5.6 kmh 29.85 in1010.8 mb - 0.00 in0.0 mm 0.00 in0.0 mm
12:25 AM 75.9°F24.4°C 72.8°F22.7°C 90% 2.3 mph WSW3.7 kmh WSW 2.3 mph3.7 kmh 29.85 in1010.8 mb - 0.00 in0.0 mm 0.00 in0.0 mm
12:20 AM 75.9°F24.4°C 72.8°F22.7°C 90% 2.3 mph SW3.7 kmh SW 3.5 mph5.6 kmh 29.85 in1010.8 mb - 0.00 in0.0 mm 0.00 in0.0 mm
12:15 AM 75.9°F24.4°C 72.8°F22.7°C 90% 2.3 mph SSW3.7 kmh SSW 3.5 mph5.6 kmh 29.84 in1010.5 mb - 0.00 in0.0 mm 0.00 in0.0 mm
12:10 AM 76.3°F24.6°C 73.1°F22.8°C 90% 1.2 mph SSE1.9 kmh SSE 3.5 mph5.6 kmh 29.85 in1010.8 mb - 0.00 in0.0 mm 0.00 in0.0 mm
12:00 AM 76.5°F24.7°C 72.6°F22.6°C 88% 2.3 mph W3.7 kmh W 1.2 mph1.9 kmh 29.85 in1010.8 mb - 0.00 in0.0 mm 0.00 in0.0 mm